Aérodrome :
LOGIN :

S'inscrire | Disclaimer

   EN    FR    IT 

 










Légende :    VFR   VFR Marginal   IFR   IFR Intensif   IFR Très Intensif
Visi : 
Plafond : 
>= 8 km
>= 3000ft
5 à 8 km
1000 à 3000 ft
1500m à 5 km
500 à 1000 ft
800 à 1500m
200 à 500 ft
< 800m
< 200 ft
Symboles :   Orages  Brouillard  Fortes neiges  Fortes précipitations  Vent > 20 kt
SIGMETs :   Divers  Orages  Givrage  Turbulence  Onde Orograph.  Cendres Volcan.






- Altitude de l'aérodrome : 597 ft


ESPE - Vidsel Air Base

DERNIER METAR :
  • 020550Z 12004KT 9999 -SN VV033 M06/M10 Q0985

METARs EXPIRÉS :
  • 020520Z 14003KT 110V170 9000 -SN BKN044 M07/M11 Q0985
  • 020450Z AUTO 10002KT 9999 SCT048/// M08/M11 Q0986
  • 020420Z AUTO 14002KT 9999 BKN038/// M09/M12 Q0986
  • 020350Z AUTO VRB02KT 9999 FEW023/// SCT034/// BKN052/// M09/M12 Q0987
  • 020320Z AUTO 00000KT 9999 FEW032/// M09/M12 Q0987

TAF TAF ESPE
Valide du 02 à 06h jusqu'au 02 à 14h UTC


020510Z 0206/0214 12005KT 7000 -SN BKN020
TEMPO 0206/0214 1000 SN VV010 RMK MIL



MET'MAP, la Météo Aéronautique d'un coup d'oeil ! - Copyright ORBIFLY Décembre 2007 - Disclaimer

ORBIFLY MET'MAP TEAM :

Programmation & Développement : Alexandra Zaïnal
Sur une idée originale de : Baudouin d'Aumeries
Assistance à la programmation : Marc-Olivier Méhu
Soutien technique & logistique : Manuel Goepfert

Contact : metmap@orbifly.com




SOURCES & CREDITS :

   NOAA